sensor_id;sensor_type;location;lat;lon;timestamp;P1;durP1;ratioP1;P2;durP2;ratioP2
38937;SDS011;24727;51.974;20.868;2022-09-17T00:01:03;5.97;;;4.10;;
38937;SDS011;24727;51.974;20.868;2022-09-17T00:03:30;6.45;;;3.35;;
38937;SDS011;24727;51.974;20.868;2022-09-17T00:06:02;5.88;;;3.60;;
38937;SDS011;24727;51.974;20.868;2022-09-17T00:08:33;7.03;;;3.40;;
38937;SDS011;24727;51.974;20.868;2022-09-17T00:13:38;7.55;;;4.10;;
38937;SDS011;24727;51.974;20.868;2022-09-17T00:16:05;4.97;;;3.78;;
38937;SDS011;24727;51.974;20.868;2022-09-17T00:18:31;5.68;;;4.32;;
38937;SDS011;24727;51.974;20.868;2022-09-17T00:21:02;6.03;;;3.95;;
38937;SDS011;24727;51.974;20.868;2022-09-17T00:23:28;6.45;;;4.30;;
38937;SDS011;24727;51.974;20.868;2022-09-17T00:26:03;8.15;;;4.15;;
38937;SDS011;24727;51.974;20.868;2022-09-17T00:28:30;12.70;;;4.38;;
38937;SDS011;24727;51.974;20.868;2022-09-17T00:30:57;7.50;;;4.28;;
38937;SDS011;24727;51.974;20.868;2022-09-17T00:33:23;5.85;;;4.28;;
38937;SDS011;24727;51.974;20.868;2022-09-17T00:35:59;5.78;;;4.32;;
38937;SDS011;24727;51.974;20.868;2022-09-17T00:38:27;6.53;;;4.32;;
38937;SDS011;24727;51.974;20.868;2022-09-17T00:40:53;7.82;;;4.47;;
38937;SDS011;24727;51.974;20.868;2022-09-17T00:46:17;8.35;;;4.00;;
38937;SDS011;24727;51.974;20.868;2022-09-17T00:49:05;5.78;;;3.75;;
38937;SDS011;24727;51.974;20.868;2022-09-17T00:51:40;5.32;;;3.58;;
38937;SDS011;24727;51.974;20.868;2022-09-17T00:54:28;6.13;;;3.70;;
38937;SDS011;24727;51.974;20.868;2022-09-17T00:56:55;6.25;;;4.25;;
38937;SDS011;24727;51.974;20.868;2022-09-17T00:59:22;4.60;;;3.75;;
38937;SDS011;24727;51.974;20.868;2022-09-17T01:01:49;5.70;;;3.95;;
38937;SDS011;24727;51.974;20.868;2022-09-17T01:04:17;6.60;;;3.65;;
38937;SDS011;24727;51.974;20.868;2022-09-17T01:09:25;5.75;;;4.00;;
38937;SDS011;24727;51.974;20.868;2022-09-17T01:15:07;9.48;;;4.38;;
38937;SDS011;24727;51.974;20.868;2022-09-17T01:17:38;5.47;;;4.18;;
38937;SDS011;24727;51.974;20.868;2022-09-17T01:20:32;6.05;;;4.00;;
38937;SDS011;24727;51.974;20.868;2022-09-17T01:34:41;7.50;;;4.03;;
38937;SDS011;24727;51.974;20.868;2022-09-17T01:37:19;6.45;;;4.43;;
38937;SDS011;24727;51.974;20.868;2022-09-17T01:40:01;5.70;;;4.32;;
38937;SDS011;24727;51.974;20.868;2022-09-17T01:48:06;6.25;;;4.68;;
38937;SDS011;24727;51.974;20.868;2022-09-17T01:50:57;7.53;;;4.32;;
38937;SDS011;24727;51.974;20.868;2022-09-17T01:53:34;6.68;;;4.40;;
38937;SDS011;24727;51.974;20.868;2022-09-17T01:56:12;7.00;;;3.92;;
38937;SDS011;24727;51.974;20.868;2022-09-17T01:58:47;7.97;;;3.95;;
38937;SDS011;24727;51.974;20.868;2022-09-17T02:01:20;5.68;;;3.92;;
38937;SDS011;24727;51.974;20.868;2022-09-17T02:03:52;5.22;;;3.75;;
38937;SDS011;24727;51.974;20.868;2022-09-17T02:06:46;8.73;;;3.90;;
38937;SDS011;24727;51.974;20.868;2022-09-17T02:09:20;8.55;;;4.20;;
38937;SDS011;24727;51.974;20.868;2022-09-17T02:11:53;5.82;;;4.22;;
38937;SDS011;24727;51.974;20.868;2022-09-17T02:14:27;7.25;;;3.97;;
38937;SDS011;24727;51.974;20.868;2022-09-17T02:17:12;6.55;;;3.95;;
38937;SDS011;24727;51.974;20.868;2022-09-17T02:19:58;4.72;;;3.90;;
38937;SDS011;24727;51.974;20.868;2022-09-17T02:25:14;7.47;;;4.28;;
38937;SDS011;24727;51.974;20.868;2022-09-17T02:27:52;5.75;;;3.60;;
38937;SDS011;24727;51.974;20.868;2022-09-17T02:30:27;8.50;;;3.90;;
38937;SDS011;24727;51.974;20.868;2022-09-17T02:32:54;6.80;;;3.65;;
38937;SDS011;24727;51.974;20.868;2022-09-17T02:35:20;5.28;;;3.80;;
38937;SDS011;24727;51.974;20.868;2022-09-17T02:37:52;4.47;;;3.70;;
38937;SDS011;24727;51.974;20.868;2022-09-17T02:40:20;4.35;;;3.67;;
38937;SDS011;24727;51.974;20.868;2022-09-17T02:42:58;7.30;;;4.28;;
38937;SDS011;24727;51.974;20.868;2022-09-17T02:45:43;6.13;;;4.53;;
38937;SDS011;24727;51.974;20.868;2022-09-17T02:48:41;8.43;;;4.53;;
38937;SDS011;24727;51.974;20.868;2022-09-17T02:54:22;4.85;;;4.30;;
38937;SDS011;24727;51.974;20.868;2022-09-17T02:57:06;8.80;;;5.22;;
38937;SDS011;24727;51.974;20.868;2022-09-17T03:00:00;5.20;;;4.25;;
38937;SDS011;24727;51.974;20.868;2022-09-17T03:02:40;6.60;;;4.38;;
38937;SDS011;24727;51.974;20.868;2022-09-17T03:05:13;7.18;;;4.88;;
38937;SDS011;24727;51.974;20.868;2022-09-17T03:07:42;4.95;;;4.18;;
38937;SDS011;24727;51.974;20.868;2022-09-17T03:10:08;7.20;;;4.40;;
38937;SDS011;24727;51.974;20.868;2022-09-17T03:12:34;6.28;;;4.38;;
38937;SDS011;24727;51.974;20.868;2022-09-17T03:15:02;9.10;;;5.18;;
38937;SDS011;24727;51.974;20.868;2022-09-17T03:17:30;10.20;;;4.25;;
38937;SDS011;24727;51.974;20.868;2022-09-17T03:19:56;7.00;;;3.92;;
38937;SDS011;24727;51.974;20.868;2022-09-17T03:22:23;7.25;;;4.57;;
38937;SDS011;24727;51.974;20.868;2022-09-17T03:24:50;7.65;;;4.20;;
38937;SDS011;24727;51.974;20.868;2022-09-17T03:27:16;6.53;;;4.10;;
38937;SDS011;24727;51.974;20.868;2022-09-17T03:29:42;7.68;;;3.97;;
38937;SDS011;24727;51.974;20.868;2022-09-17T03:32:08;7.78;;;3.80;;
38937;SDS011;24727;51.974;20.868;2022-09-17T03:34:42;6.28;;;4.30;;
38937;SDS011;24727;51.974;20.868;2022-09-17T03:37:08;8.98;;;4.45;;
38937;SDS011;24727;51.974;20.868;2022-09-17T03:39:34;7.68;;;4.28;;
38937;SDS011;24727;51.974;20.868;2022-09-17T03:42:00;7.78;;;4.57;;
38937;SDS011;24727;51.974;20.868;2022-09-17T03:44:28;5.65;;;4.53;;
38937;SDS011;24727;51.974;20.868;2022-09-17T03:46:54;7.57;;;4.90;;
38937;SDS011;24727;51.974;20.868;2022-09-17T03:49:21;7.93;;;4.40;;
38937;SDS011;24727;51.974;20.868;2022-09-17T03:51:48;6.75;;;4.85;;
38937;SDS011;24727;51.974;20.868;2022-09-17T03:54:16;8.95;;;4.97;;
38937;SDS011;24727;51.974;20.868;2022-09-17T03:56:42;9.93;;;4.55;;
38937;SDS011;24727;51.974;20.868;2022-09-17T03:59:14;7.85;;;4.70;;
38937;SDS011;24727;51.974;20.868;2022-09-17T04:01:41;5.60;;;4.18;;
38937;SDS011;24727;51.974;20.868;2022-09-17T04:04:08;9.75;;;5.50;;
38937;SDS011;24727;51.974;20.868;2022-09-17T04:06:35;6.85;;;4.20;;
38937;SDS011;24727;51.974;20.868;2022-09-17T04:09:00;6.70;;;4.35;;
38937;SDS011;24727;51.974;20.868;2022-09-17T04:11:30;6.13;;;4.15;;
38937;SDS011;24727;51.974;20.868;2022-09-17T04:13:56;4.80;;;3.83;;
38937;SDS011;24727;51.974;20.868;2022-09-17T04:16:23;5.47;;;3.72;;
38937;SDS011;24727;51.974;20.868;2022-09-17T04:18:49;5.68;;;4.10;;
38937;SDS011;24727;51.974;20.868;2022-09-17T04:21:15;5.35;;;3.95;;
38937;SDS011;24727;51.974;20.868;2022-09-17T04:23:43;6.10;;;4.50;;
38937;SDS011;24727;51.974;20.868;2022-09-17T04:26:09;6.05;;;4.38;;
38937;SDS011;24727;51.974;20.868;2022-09-17T04:28:35;5.82;;;4.53;;
38937;SDS011;24727;51.974;20.868;2022-09-17T04:31:02;6.97;;;4.38;;
38937;SDS011;24727;51.974;20.868;2022-09-17T04:33:28;5.82;;;3.97;;
38937;SDS011;24727;51.974;20.868;2022-09-17T04:35:54;6.88;;;4.50;;
38937;SDS011;24727;51.974;20.868;2022-09-17T04:38:20;7.15;;;4.68;;
38937;SDS011;24727;51.974;20.868;2022-09-17T04:40:46;5.45;;;4.60;;
38937;SDS011;24727;51.974;20.868;2022-09-17T04:43:13;6.35;;;4.28;;
38937;SDS011;24727;51.974;20.868;2022-09-17T04:45:39;8.63;;;4.72;;
38937;SDS011;24727;51.974;20.868;2022-09-17T04:48:05;4.97;;;4.47;;
38937;SDS011;24727;51.974;20.868;2022-09-17T04:50:31;6.13;;;4.53;;
38937;SDS011;24727;51.974;20.868;2022-09-17T04:52:57;6.28;;;4.35;;
38937;SDS011;24727;51.974;20.868;2022-09-17T04:55:23;8.75;;;4.55;;
38937;SDS011;24727;51.974;20.868;2022-09-17T04:57:50;5.75;;;4.25;;
38937;SDS011;24727;51.974;20.868;2022-09-17T05:00:18;5.65;;;4.00;;
38937;SDS011;24727;51.974;20.868;2022-09-17T05:02:45;4.80;;;3.97;;
38937;SDS011;24727;51.974;20.868;2022-09-17T05:05:14;6.07;;;4.15;;
38937;SDS011;24727;51.974;20.868;2022-09-17T05:07:43;8.02;;;3.70;;
38937;SDS011;24727;51.974;20.868;2022-09-17T05:10:10;8.05;;;3.88;;
38937;SDS011;24727;51.974;20.868;2022-09-17T05:12:37;8.00;;;4.05;;
38937;SDS011;24727;51.974;20.868;2022-09-17T05:15:04;6.45;;;3.95;;
38937;SDS011;24727;51.974;20.868;2022-09-17T05:17:31;9.63;;;4.10;;
38937;SDS011;24727;51.974;20.868;2022-09-17T05:19:57;5.90;;;3.60;;
38937;SDS011;24727;51.974;20.868;2022-09-17T05:22:31;7.88;;;3.92;;
38937;SDS011;24727;51.974;20.868;2022-09-17T05:24:57;7.30;;;3.90;;
38937;SDS011;24727;51.974;20.868;2022-09-17T05:27:23;4.63;;;3.35;;
38937;SDS011;24727;51.974;20.868;2022-09-17T05:29:50;5.03;;;3.05;;
38937;SDS011;24727;51.974;20.868;2022-09-17T05:32:17;5.85;;;3.40;;
38937;SDS011;24727;51.974;20.868;2022-09-17T05:34:43;4.80;;;2.97;;
38937;SDS011;24727;51.974;20.868;2022-09-17T05:37:09;7.28;;;3.53;;
38937;SDS011;24727;51.974;20.868;2022-09-17T05:39:35;5.60;;;2.88;;
38937;SDS011;24727;51.974;20.868;2022-09-17T05:42:03;4.78;;;3.05;;
38937;SDS011;24727;51.974;20.868;2022-09-17T05:44:32;6.30;;;3.83;;
38937;SDS011;24727;51.974;20.868;2022-09-17T05:46:58;6.55;;;5.05;;
38937;SDS011;24727;51.974;20.868;2022-09-17T05:49:24;10.15;;;9.15;;
38937;SDS011;24727;51.974;20.868;2022-09-17T05:51:50;12.90;;;10.82;;
38937;SDS011;24727;51.974;20.868;2022-09-17T05:54:16;11.60;;;10.13;;
38937;SDS011;24727;51.974;20.868;2022-09-17T05:56:43;14.68;;;10.82;;
38937;SDS011;24727;51.974;20.868;2022-09-17T05:59:09;11.48;;;9.75;;
38937;SDS011;24727;51.974;20.868;2022-09-17T06:01:37;8.95;;;7.93;;
38937;SDS011;24727;51.974;20.868;2022-09-17T06:04:03;7.70;;;7.00;;
38937;SDS011;24727;51.974;20.868;2022-09-17T06:06:29;4.05;;;2.97;;
38937;SDS011;24727;51.974;20.868;2022-09-17T06:08:58;4.38;;;2.10;;
38937;SDS011;24727;51.974;20.868;2022-09-17T06:11:25;4.30;;;2.10;;
38937;SDS011;24727;51.974;20.868;2022-09-17T06:13:54;4.18;;;2.83;;
38937;SDS011;24727;51.974;20.868;2022-09-17T06:16:20;5.47;;;2.17;;
38937;SDS011;24727;51.974;20.868;2022-09-17T06:18:47;4.78;;;2.20;;
38937;SDS011;24727;51.974;20.868;2022-09-17T06:21:14;6.93;;;2.53;;
38937;SDS011;24727;51.974;20.868;2022-09-17T06:23:43;3.38;;;2.20;;
38937;SDS011;24727;51.974;20.868;2022-09-17T06:26:10;3.65;;;2.63;;
38937;SDS011;24727;51.974;20.868;2022-09-17T06:28:36;5.63;;;2.30;;
38937;SDS011;24727;51.974;20.868;2022-09-17T06:31:03;3.00;;;1.73;;
38937;SDS011;24727;51.974;20.868;2022-09-17T06:33:30;3.85;;;1.45;;
38937;SDS011;24727;51.974;20.868;2022-09-17T06:35:58;2.88;;;1.33;;
38937;SDS011;24727;51.974;20.868;2022-09-17T06:38:29;3.03;;;1.52;;
38937;SDS011;24727;51.974;20.868;2022-09-17T06:40:59;3.55;;;1.50;;
38937;SDS011;24727;51.974;20.868;2022-09-17T06:43:27;3.28;;;1.23;;
38937;SDS011;24727;51.974;20.868;2022-09-17T06:45:55;2.10;;;1.10;;
38937;SDS011;24727;51.974;20.868;2022-09-17T06:48:23;3.58;;;1.15;;
38937;SDS011;24727;51.974;20.868;2022-09-17T06:50:50;5.20;;;1.25;;
38937;SDS011;24727;51.974;20.868;2022-09-17T06:53:21;3.20;;;1.63;;
38937;SDS011;24727;51.974;20.868;2022-09-17T06:55:48;2.22;;;1.00;;
38937;SDS011;24727;51.974;20.868;2022-09-17T06:58:15;2.63;;;1.10;;
38937;SDS011;24727;51.974;20.868;2022-09-17T07:00:41;2.92;;;1.17;;
38937;SDS011;24727;51.974;20.868;2022-09-17T07:03:07;1.95;;;1.10;;
38937;SDS011;24727;51.974;20.868;2022-09-17T07:05:35;3.53;;;1.38;;
38937;SDS011;24727;51.974;20.868;2022-09-17T07:08:01;2.70;;;1.40;;
38937;SDS011;24727;51.974;20.868;2022-09-17T07:10:30;9.75;;;1.77;;
38937;SDS011;24727;51.974;20.868;2022-09-17T07:12:57;3.38;;;1.58;;
38937;SDS011;24727;51.974;20.868;2022-09-17T07:15:23;3.50;;;1.70;;
38937;SDS011;24727;51.974;20.868;2022-09-17T07:17:49;4.65;;;2.03;;
38937;SDS011;24727;51.974;20.868;2022-09-17T07:20:15;2.25;;;1.15;;
38937;SDS011;24727;51.974;20.868;2022-09-17T07:22:42;5.47;;;1.85;;
38937;SDS011;24727;51.974;20.868;2022-09-17T07:25:08;6.78;;;1.80;;
38937;SDS011;24727;51.974;20.868;2022-09-17T07:27:35;4.75;;;1.25;;
38937;SDS011;24727;51.974;20.868;2022-09-17T07:30:02;2.58;;;1.48;;
38937;SDS011;24727;51.974;20.868;2022-09-17T07:32:30;5.03;;;1.98;;
38937;SDS011;24727;51.974;20.868;2022-09-17T07:34:55;4.03;;;2.22;;
38937;SDS011;24727;51.974;20.868;2022-09-17T07:37:21;6.00;;;2.15;;
38937;SDS011;24727;51.974;20.868;2022-09-17T07:39:48;3.30;;;1.58;;
38937;SDS011;24727;51.974;20.868;2022-09-17T07:42:14;3.22;;;1.65;;
38937;SDS011;24727;51.974;20.868;2022-09-17T07:44:40;3.20;;;1.83;;
38937;SDS011;24727;51.974;20.868;2022-09-17T07:47:07;5.22;;;1.70;;
38937;SDS011;24727;51.974;20.868;2022-09-17T07:49:36;3.97;;;1.63;;
38937;SDS011;24727;51.974;20.868;2022-09-17T07:52:02;3.17;;;1.80;;
38937;SDS011;24727;51.974;20.868;2022-09-17T07:54:31;3.17;;;2.30;;
38937;SDS011;24727;51.974;20.868;2022-09-17T07:56:58;10.50;;;2.22;;
38937;SDS011;24727;51.974;20.868;2022-09-17T07:59:24;2.90;;;1.75;;
38937;SDS011;24727;51.974;20.868;2022-09-17T08:01:50;3.00;;;2.17;;
38937;SDS011;24727;51.974;20.868;2022-09-17T08:04:17;3.70;;;1.77;;
38937;SDS011;24727;51.974;20.868;2022-09-17T08:06:49;3.60;;;1.52;;
38937;SDS011;24727;51.974;20.868;2022-09-17T08:09:18;3.72;;;1.83;;
38937;SDS011;24727;51.974;20.868;2022-09-17T08:11:45;3.08;;;1.90;;
38937;SDS011;24727;51.974;20.868;2022-09-17T08:14:12;4.30;;;1.88;;
38937;SDS011;24727;51.974;20.868;2022-09-17T08:16:41;3.17;;;1.83;;
38937;SDS011;24727;51.974;20.868;2022-09-17T08:19:07;5.20;;;2.83;;
38937;SDS011;24727;51.974;20.868;2022-09-17T08:21:35;3.78;;;2.08;;
38937;SDS011;24727;51.974;20.868;2022-09-17T08:24:01;3.00;;;1.80;;
38937;SDS011;24727;51.974;20.868;2022-09-17T08:26:29;3.80;;;2.00;;
38937;SDS011;24727;51.974;20.868;2022-09-17T08:28:56;5.80;;;1.90;;
38937;SDS011;24727;51.974;20.868;2022-09-17T08:31:23;2.42;;;1.95;;
38937;SDS011;24727;51.974;20.868;2022-09-17T08:33:51;4.93;;;2.38;;
38937;SDS011;24727;51.974;20.868;2022-09-17T08:36:17;4.90;;;2.47;;
38937;SDS011;24727;51.974;20.868;2022-09-17T08:38:45;3.65;;;1.90;;
38937;SDS011;24727;51.974;20.868;2022-09-17T08:43:46;3.17;;;2.33;;
38937;SDS011;24727;51.974;20.868;2022-09-17T08:46:31;5.35;;;1.98;;
38937;SDS011;24727;51.974;20.868;2022-09-17T08:54:41;1.48;;;1.38;;
38937;SDS011;24727;51.974;20.868;2022-09-17T09:00:00;1.70;;;1.13;;
38937;SDS011;24727;51.974;20.868;2022-09-17T09:02:44;4.25;;;1.40;;
38937;SDS011;24727;51.974;20.868;2022-09-17T09:05:22;1.50;;;1.40;;
38937;SDS011;24727;51.974;20.868;2022-09-17T09:07:55;5.13;;;1.77;;
38937;SDS011;24727;51.974;20.868;2022-09-17T09:10:45;2.42;;;1.70;;
38937;SDS011;24727;51.974;20.868;2022-09-17T09:13:21;3.13;;;1.80;;
38937;SDS011;24727;51.974;20.868;2022-09-17T09:16:06;5.55;;;1.83;;
38937;SDS011;24727;51.974;20.868;2022-09-17T09:18:44;3.05;;;1.92;;
38937;SDS011;24727;51.974;20.868;2022-09-17T09:23:54;3.85;;;1.60;;
38937;SDS011;24727;51.974;20.868;2022-09-17T09:29:06;1.83;;;1.05;;
38937;SDS011;24727;51.974;20.868;2022-09-17T09:34:13;2.33;;;1.40;;
38937;SDS011;24727;51.974;20.868;2022-09-17T09:36:40;3.78;;;1.83;;
38937;SDS011;24727;51.974;20.868;2022-09-17T09:39:11;2.05;;;1.15;;
38937;SDS011;24727;51.974;20.868;2022-09-17T09:41:58;2.65;;;1.42;;
38937;SDS011;24727;51.974;20.868;2022-09-17T09:44:44;1.48;;;1.38;;
38937;SDS011;24727;51.974;20.868;2022-09-17T09:50:10;2.70;;;1.40;;
38937;SDS011;24727;51.974;20.868;2022-09-17T09:56:25;1.33;;;1.23;;
38937;SDS011;24727;51.974;20.868;2022-09-17T09:59:00;1.75;;;1.65;;
38937;SDS011;24727;51.974;20.868;2022-09-17T10:01:28;4.68;;;1.48;;
38937;SDS011;24727;51.974;20.868;2022-09-17T10:03:57;1.88;;;1.40;;
38937;SDS011;24727;51.974;20.868;2022-09-17T10:06:23;1.10;;;1.00;;
38937;SDS011;24727;51.974;20.868;2022-09-17T10:11:23;2.40;;;1.30;;
38937;SDS011;24727;51.974;20.868;2022-09-17T10:13:50;0.98;;;0.90;;
38937;SDS011;24727;51.974;20.868;2022-09-17T10:16:26;3.88;;;1.00;;
38937;SDS011;24727;51.974;20.868;2022-09-17T10:21:37;1.70;;;1.52;;
38937;SDS011;24727;51.974;20.868;2022-09-17T10:24:11;2.95;;;1.60;;
38937;SDS011;24727;51.974;20.868;2022-09-17T10:26:50;2.78;;;1.10;;
38937;SDS011;24727;51.974;20.868;2022-09-17T10:29:24;4.40;;;1.00;;
38937;SDS011;24727;51.974;20.868;2022-09-17T10:31:54;2.15;;;1.20;;
38937;SDS011;24727;51.974;20.868;2022-09-17T10:34:22;1.30;;;1.20;;
38937;SDS011;24727;51.974;20.868;2022-09-17T10:36:53;3.47;;;1.75;;
38937;SDS011;24727;51.974;20.868;2022-09-17T10:44:52;1.35;;;1.20;;
38937;SDS011;24727;51.974;20.868;2022-09-17T10:47:25;1.40;;;1.20;;
38937;SDS011;24727;51.974;20.868;2022-09-17T10:50:02;1.73;;;0.98;;
38937;SDS011;24727;51.974;20.868;2022-09-17T10:52:37;1.40;;;1.30;;
38937;SDS011;24727;51.974;20.868;2022-09-17T11:11:28;1.42;;;1.33;;
38937;SDS011;24727;51.974;20.868;2022-09-17T11:20:06;1.90;;;1.30;;
38937;SDS011;24727;51.974;20.868;2022-09-17T11:22:57;6.75;;;1.40;;
38937;SDS011;24727;51.974;20.868;2022-09-17T11:39:46;1.88;;;1.10;;
38937;SDS011;24727;51.974;20.868;2022-09-17T11:42:18;2.25;;;1.50;;
38937;SDS011;24727;51.974;20.868;2022-09-17T11:44:57;1.60;;;1.35;;
38937;SDS011;24727;51.974;20.868;2022-09-17T11:47:35;1.50;;;1.40;;
38937;SDS011;24727;51.974;20.868;2022-09-17T11:50:27;2.08;;;1.40;;
38937;SDS011;24727;51.974;20.868;2022-09-17T11:53:21;4.43;;;1.40;;
38937;SDS011;24727;51.974;20.868;2022-09-17T11:55:58;2.72;;;1.50;;
38937;SDS011;24727;51.974;20.868;2022-09-17T12:04:32;4.65;;;1.33;;
38937;SDS011;24727;51.974;20.868;2022-09-17T12:12:47;2.83;;;1.60;;
38937;SDS011;24727;51.974;20.868;2022-09-17T12:15:24;2.67;;;1.73;;
38937;SDS011;24727;51.974;20.868;2022-09-17T12:18:16;1.85;;;1.42;;
38937;SDS011;24727;51.974;20.868;2022-09-17T12:21:03;2.80;;;1.92;;
38937;SDS011;24727;51.974;20.868;2022-09-17T12:23:44;4.90;;;1.70;;
38937;SDS011;24727;51.974;20.868;2022-09-17T12:26:18;2.78;;;1.83;;
38937;SDS011;24727;51.974;20.868;2022-09-17T12:29:35;2.38;;;1.80;;
38937;SDS011;24727;51.974;20.868;2022-09-17T12:31:45;2.83;;;1.77;;
38937;SDS011;24727;51.974;20.868;2022-09-17T12:34:22;1.70;;;1.60;;
38937;SDS011;24727;51.974;20.868;2022-09-17T12:37:18;1.95;;;1.40;;
38937;SDS011;24727;51.974;20.868;2022-09-17T12:39:54;1.60;;;1.50;;
38937;SDS011;24727;51.974;20.868;2022-09-17T12:42:41;1.88;;;1.52;;
38937;SDS011;24727;51.974;20.868;2022-09-17T12:48:12;1.58;;;1.25;;
38937;SDS011;24727;51.974;20.868;2022-09-17T12:50:50;5.05;;;1.50;;
38937;SDS011;24727;51.974;20.868;2022-09-17T13:01:25;2.83;;;1.50;;
38937;SDS011;24727;51.974;20.868;2022-09-17T13:04:16;1.45;;;1.33;;
38937;SDS011;24727;51.974;20.868;2022-09-17T13:18:22;1.35;;;1.25;;
38937;SDS011;24727;51.974;20.868;2022-09-17T13:20:58;2.38;;;1.50;;
38937;SDS011;24727;51.974;20.868;2022-09-17T13:23:45;2.30;;;1.80;;
38937;SDS011;24727;51.974;20.868;2022-09-17T13:26:14;2.60;;;1.45;;
38937;SDS011;24727;51.974;20.868;2022-09-17T13:28:49;1.47;;;1.37;;
38937;SDS011;24727;51.974;20.868;2022-09-17T13:31:50;2.80;;;1.80;;
38937;SDS011;24727;51.974;20.868;2022-09-17T13:39:31;2.13;;;1.80;;
38937;SDS011;24727;51.974;20.868;2022-09-17T13:42:29;2.45;;;1.45;;
38937;SDS011;24727;51.974;20.868;2022-09-17T13:45:09;1.85;;;1.75;;
38937;SDS011;24727;51.974;20.868;2022-09-17T13:50:34;2.45;;;1.70;;
38937;SDS011;24727;51.974;20.868;2022-09-17T13:55:37;1.48;;;1.30;;
38937;SDS011;24727;51.974;20.868;2022-09-17T13:58:30;1.60;;;1.50;;
38937;SDS011;24727;51.974;20.868;2022-09-17T14:08:47;1.48;;;1.38;;
38937;SDS011;24727;51.974;20.868;2022-09-17T14:21:31;1.80;;;1.63;;
38937;SDS011;24727;51.974;20.868;2022-09-17T14:24:02;1.70;;;1.50;;
38937;SDS011;24727;51.974;20.868;2022-09-17T14:32:15;4.03;;;1.60;;
38937;SDS011;24727;51.974;20.868;2022-09-17T14:34:51;3.90;;;1.95;;
38937;SDS011;24727;51.974;20.868;2022-09-17T14:37:18;2.13;;;1.90;;
38937;SDS011;24727;51.974;20.868;2022-09-17T14:39:45;2.47;;;2.28;;
38937;SDS011;24727;51.974;20.868;2022-09-17T14:42:27;1.80;;;1.70;;
38937;SDS011;24727;51.974;20.868;2022-09-17T14:45:02;2.00;;;1.75;;
38937;SDS011;24727;51.974;20.868;2022-09-17T14:47:32;2.00;;;1.70;;
38937;SDS011;24727;51.974;20.868;2022-09-17T14:50:18;3.60;;;2.42;;
38937;SDS011;24727;51.974;20.868;2022-09-17T14:52:50;3.72;;;2.38;;
38937;SDS011;24727;51.974;20.868;2022-09-17T14:55:21;3.15;;;2.17;;
38937;SDS011;24727;51.974;20.868;2022-09-17T14:57:56;2.28;;;2.05;;
38937;SDS011;24727;51.974;20.868;2022-09-17T15:00:32;1.75;;;1.65;;
38937;SDS011;24727;51.974;20.868;2022-09-17T15:02:59;1.88;;;1.70;;
38937;SDS011;24727;51.974;20.868;2022-09-17T15:05:33;2.92;;;1.85;;
38937;SDS011;24727;51.974;20.868;2022-09-17T15:10:57;3.20;;;2.15;;
38937;SDS011;24727;51.974;20.868;2022-09-17T15:19:01;2.53;;;2.33;;
38937;SDS011;24727;51.974;20.868;2022-09-17T15:26:52;3.13;;;2.83;;
38937;SDS011;24727;51.974;20.868;2022-09-17T15:29:24;2.70;;;2.50;;
38937;SDS011;24727;51.974;20.868;2022-09-17T15:31:53;3.53;;;2.70;;
38937;SDS011;24727;51.974;20.868;2022-09-17T15:34:21;3.45;;;2.83;;
38937;SDS011;24727;51.974;20.868;2022-09-17T15:39:41;4.10;;;2.88;;
38937;SDS011;24727;51.974;20.868;2022-09-17T15:42:27;3.45;;;3.15;;
38937;SDS011;24727;51.974;20.868;2022-09-17T15:47:51;4.15;;;2.90;;
38937;SDS011;24727;51.974;20.868;2022-09-17T15:50:23;3.97;;;3.45;;
38937;SDS011;24727;51.974;20.868;2022-09-17T15:55:37;6.13;;;4.05;;
38937;SDS011;24727;51.974;20.868;2022-09-17T16:08:51;4.07;;;3.03;;
38937;SDS011;24727;51.974;20.868;2022-09-17T16:11:22;4.05;;;3.03;;
38937;SDS011;24727;51.974;20.868;2022-09-17T16:13:53;2.90;;;2.60;;
38937;SDS011;24727;51.974;20.868;2022-09-17T16:16:22;3.55;;;2.70;;
38937;SDS011;24727;51.974;20.868;2022-09-17T16:18:58;3.63;;;3.00;;
38937;SDS011;24727;51.974;20.868;2022-09-17T16:21:25;3.45;;;2.38;;
38937;SDS011;24727;51.974;20.868;2022-09-17T16:23:51;3.15;;;2.35;;
38937;SDS011;24727;51.974;20.868;2022-09-17T16:26:19;3.63;;;2.50;;
38937;SDS011;24727;51.974;20.868;2022-09-17T16:28:55;4.57;;;2.47;;
38937;SDS011;24727;51.974;20.868;2022-09-17T16:31:26;2.75;;;2.30;;
38937;SDS011;24727;51.974;20.868;2022-09-17T16:33:52;4.57;;;2.67;;
38937;SDS011;24727;51.974;20.868;2022-09-17T16:36:20;2.80;;;2.20;;
38937;SDS011;24727;51.974;20.868;2022-09-17T16:38:47;2.97;;;1.80;;
38937;SDS011;24727;51.974;20.868;2022-09-17T16:41:14;2.88;;;2.20;;
38937;SDS011;24727;51.974;20.868;2022-09-17T16:43:41;3.58;;;2.10;;
38937;SDS011;24727;51.974;20.868;2022-09-17T16:46:14;2.78;;;2.20;;
38937;SDS011;24727;51.974;20.868;2022-09-17T16:48:40;2.42;;;2.20;;
38937;SDS011;24727;51.974;20.868;2022-09-17T16:51:08;3.15;;;2.63;;
38937;SDS011;24727;51.974;20.868;2022-09-17T16:53:37;3.28;;;2.20;;
38937;SDS011;24727;51.974;20.868;2022-09-17T16:56:11;4.80;;;2.30;;
38937;SDS011;24727;51.974;20.868;2022-09-17T16:58:38;2.78;;;2.47;;
38937;SDS011;24727;51.974;20.868;2022-09-17T17:01:06;3.55;;;3.15;;
38937;SDS011;24727;51.974;20.868;2022-09-17T17:03:36;4.97;;;3.60;;
38937;SDS011;24727;51.974;20.868;2022-09-17T17:06:02;3.38;;;2.78;;
38937;SDS011;24727;51.974;20.868;2022-09-17T17:08:31;4.38;;;2.90;;
38937;SDS011;24727;51.974;20.868;2022-09-17T17:10:58;5.45;;;3.75;;
38937;SDS011;24727;51.974;20.868;2022-09-17T17:13:25;6.53;;;3.95;;
38937;SDS011;24727;51.974;20.868;2022-09-17T17:15:52;5.20;;;3.90;;
38937;SDS011;24727;51.974;20.868;2022-09-17T17:18:19;3.83;;;3.08;;
38937;SDS011;24727;51.974;20.868;2022-09-17T17:20:45;4.90;;;3.90;;
38937;SDS011;24727;51.974;20.868;2022-09-17T17:23:13;3.35;;;2.90;;
38937;SDS011;24727;51.974;20.868;2022-09-17T17:25:40;4.72;;;3.25;;
38937;SDS011;24727;51.974;20.868;2022-09-17T17:28:06;6.03;;;3.58;;
38937;SDS011;24727;51.974;20.868;2022-09-17T17:30:34;4.85;;;3.67;;
38937;SDS011;24727;51.974;20.868;2022-09-17T17:33:00;4.47;;;3.55;;
38937;SDS011;24727;51.974;20.868;2022-09-17T17:35:29;5.65;;;4.43;;
38937;SDS011;24727;51.974;20.868;2022-09-17T17:37:55;5.70;;;4.75;;
38937;SDS011;24727;51.974;20.868;2022-09-17T17:40:21;8.00;;;4.63;;
38937;SDS011;24727;51.974;20.868;2022-09-17T17:42:50;6.90;;;4.70;;
38937;SDS011;24727;51.974;20.868;2022-09-17T17:45:16;6.85;;;5.15;;
38937;SDS011;24727;51.974;20.868;2022-09-17T17:47:43;6.65;;;4.97;;
38937;SDS011;24727;51.974;20.868;2022-09-17T17:50:09;8.73;;;6.30;;
38937;SDS011;24727;51.974;20.868;2022-09-17T17:52:35;9.25;;;7.13;;
38937;SDS011;24727;51.974;20.868;2022-09-17T17:55:04;10.60;;;7.28;;
38937;SDS011;24727;51.974;20.868;2022-09-17T17:57:31;8.25;;;6.45;;
38937;SDS011;24727;51.974;20.868;2022-09-17T17:59:57;9.45;;;6.32;;
38937;SDS011;24727;51.974;20.868;2022-09-17T18:02:23;7.47;;;5.10;;
38937;SDS011;24727;51.974;20.868;2022-09-17T18:04:49;7.78;;;5.43;;
38937;SDS011;24727;51.974;20.868;2022-09-17T18:07:15;11.48;;;6.47;;
38937;SDS011;24727;51.974;20.868;2022-09-17T18:09:42;10.70;;;7.72;;
38937;SDS011;24727;51.974;20.868;2022-09-17T18:12:08;9.38;;;7.68;;
38937;SDS011;24727;51.974;20.868;2022-09-17T18:14:34;13.23;;;7.30;;
38937;SDS011;24727;51.974;20.868;2022-09-17T18:17:00;10.43;;;8.27;;
38937;SDS011;24727;51.974;20.868;2022-09-17T18:19:26;14.07;;;9.48;;
38937;SDS011;24727;51.974;20.868;2022-09-17T18:21:55;11.48;;;8.68;;
38937;SDS011;24727;51.974;20.868;2022-09-17T18:24:21;11.27;;;9.38;;